Time;durP1;ratioP1;P1;durP2;ratioP2;P2;SDS_P1;SDS_P2;PMS_P1;PMS_P2;Temp;Humidity;BMP_temperature;BMP_pressure;BME280_temperature;BME280_humidity;BME280_pressure;Samples;Min_cycle;Max_cycle;Signal;HPM_P1;HPM_P2
2023/02/19 00:01:35;;;;;;;26.00;18.00;;;10.40;99.90;;;;;;2614896;54;20251;-73
2023/02/19 00:07:23;;;;;;;26.97;18.07;;;10.40;99.90;;;;;;2614806;46;20427;-76
2023/02/19 00:13:11;;;;;;;24.37;17.63;;;10.40;99.90;;;;;;2615104;54;20676;-73
2023/02/19 00:19:00;;;;;;;28.10;20.43;;;10.30;99.90;;;;;;2614692;54;20267;-73
2023/02/19 00:24:48;;;;;;;19.97;13.60;;;10.40;99.90;;;;;;2614642;54;20387;-74
2023/02/19 00:30:36;;;;;;;25.87;17.23;;;10.40;99.90;;;;;;2615411;54;20191;-73
2023/02/19 00:36:24;;;;;;;22.33;15.67;;;10.40;99.90;;;;;;2615697;54;20130;-74
2023/02/19 00:42:12;;;;;;;25.67;17.27;;;10.40;99.90;;;;;;2615729;31;20823;-73
2023/02/19 00:48:00;;;;;;;24.80;17.97;;;10.20;99.90;;;;;;2615472;54;20158;-73
2023/02/19 00:53:48;;;;;;;19.30;11.57;;;10.30;99.90;;;;;;2615259;54;20194;-73
2023/02/19 00:57:13;;;;;;;17.50;12.40;;;10.30;99.90;;;;;;2615544;54;20490;-74
2023/02/19 01:03:00;;;;;;;18.67;13.93;;;10.30;99.90;;;;;;2615643;54;20400;-73
2023/02/19 01:08:48;;;;;;;16.63;13.90;;;10.20;99.90;;;;;;2615355;54;20135;-73
2023/02/19 01:14:36;;;;;;;24.70;14.17;;;10.20;99.90;;;;;;2615444;54;20411;-74
2023/02/19 01:20:25;;;;;;;22.67;17.10;;;10.20;99.90;;;;;;2615363;54;20685;-74
2023/02/19 01:26:19;;;;;;;26.27;19.13;;;10.30;99.90;;;;;;2615466;54;20391;-73
2023/02/19 01:32:06;;;;;;;35.70;21.47;;;10.20;99.90;;;;;;2615831;54;20459;-73
2023/02/19 01:37:54;;;;;;;38.30;22.47;;;10.20;99.90;;;;;;2615336;54;20122;-73
2023/02/19 01:44:00;;;;;;;35.10;20.77;;;10.20;99.90;;;;;;2615886;39;20521;-73
2023/02/19 01:49:53;;;;;;;33.10;18.80;;;10.20;99.90;;;;;;2615342;54;21069;-74
2023/02/19 01:52:39;;;;;;;31.17;16.70;;;10.30;99.90;;;;;;2615106;54;20547;-74
2023/02/19 01:55:09;;;;;;;30.33;18.93;;;10.20;99.90;;;;;;2614520;54;20450;-73
2023/02/19 02:00:58;;;;;;;28.83;18.70;;;10.20;99.90;;;;;;2615140;54;20387;-74
2023/02/19 02:06:51;;;;;;;29.40;16.33;;;10.10;99.90;;;;;;2615404;54;20411;-73
2023/02/19 02:12:39;;;;;;;25.57;14.83;;;10.00;99.90;;;;;;2615063;54;20458;-73
2023/02/19 02:29:03;;;;;;;36.60;24.23;;;9.90;99.90;;;;;;2613665;54;20449;-72
2023/02/19 02:34:58;;;;;;;43.90;27.03;;;10.00;99.90;;;;;;2613527;54;20455;-71
2023/02/19 02:40:46;;;;;;;42.33;24.70;;;9.90;99.90;;;;;;2613283;54;20388;-72
2023/02/19 02:46:37;;;;;;;49.47;27.47;;;9.90;99.90;;;;;;2613538;54;20415;-73
2023/02/19 03:08:36;;;;;;;42.57;22.83;;;10.00;99.90;;;;;;2614774;54;20371;-71
2023/02/19 03:20:57;;;;;;;48.10;28.27;;;10.10;99.90;;;;;;2613346;54;20400;-71
2023/02/19 03:26:52;;;;;;;43.17;25.13;;;10.10;99.90;;;;;;2613370;54;20399;-71
2023/02/19 03:42:22;;;;;;;34.67;19.20;;;10.00;99.90;;;;;;2613174;54;20387;-73
2023/02/19 04:08:08;;;;;;;22.60;13.37;;;9.90;99.90;;;;;;2615565;54;20398;-74
2023/02/19 04:20:34;;;;;;;28.30;17.40;;;9.80;99.90;;;;;;2615263;54;20391;-74
2023/02/19 04:26:22;;;;;;;33.13;16.17;;;9.80;99.90;;;;;;2615395;54;20383;-74
2023/02/19 04:32:11;;;;;;;24.67;15.73;;;9.90;99.90;;;;;;2615804;54;20382;-73
2023/02/19 04:37:58;;;;;;;37.27;16.87;;;9.90;99.90;;;;;;2615673;54;20359;-73
2023/02/19 04:43:46;;;;;;;23.60;13.57;;;9.80;99.90;;;;;;2616133;31;20662;-72
2023/02/19 04:49:34;;;;;;;23.03;12.20;;;9.80;99.90;;;;;;2615240;54;20123;-73
2023/02/19 04:55:21;;;;;;;33.37;15.10;;;9.70;99.90;;;;;;2615379;54;20134;-73
2023/02/19 05:01:09;;;;;;;20.93;13.87;;;9.70;99.90;;;;;;2615274;54;20142;-74
2023/02/19 05:06:56;;;;;;;21.07;13.87;;;9.60;99.90;;;;;;2616084;39;20664;-74
2023/02/19 05:12:44;;;;;;;27.03;16.17;;;9.50;99.90;;;;;;2615541;54;20166;-73
2023/02/19 05:18:33;;;;;;;20.73;11.80;;;9.60;99.90;;;;;;2615506;54;20171;-74
2023/02/19 05:24:21;;;;;;;28.00;14.60;;;9.60;99.90;;;;;;2615914;54;20408;-74
2023/02/19 05:30:09;;;;;;;19.07;13.70;;;9.60;99.90;;;;;;2615513;54;20115;-73
2023/02/19 05:35:58;;;;;;;25.23;16.77;;;9.70;99.90;;;;;;2615612;54;20451;-73
2023/02/19 05:41:45;;;;;;;17.27;11.73;;;9.60;99.90;;;;;;2615643;54;20374;-72
2023/02/19 05:47:33;;;;;;;20.70;13.33;;;9.60;99.90;;;;;;2615423;54;20130;-73
2023/02/19 05:53:21;;;;;;;23.03;15.97;;;9.60;99.90;;;;;;2615916;39;20543;-73
2023/02/19 05:59:16;;;;;;;32.20;15.80;;;9.60;99.90;;;;;;2615188;54;20182;-73
2023/02/19 06:05:04;;;;;;;28.13;14.40;;;9.50;99.90;;;;;;2615478;54;20387;-74
2023/02/19 06:10:52;;;;;;;21.53;13.90;;;9.40;99.90;;;;;;2615049;54;20379;-74
2023/02/19 06:16:41;;;;;;;24.23;13.40;;;9.50;99.90;;;;;;2615081;54;20130;-74
2023/02/19 06:22:28;;;;;;;20.63;11.93;;;9.30;99.90;;;;;;2615128;54;20480;-73
2023/02/19 06:28:16;;;;;;;17.30;12.50;;;9.20;99.90;;;;;;2615107;46;20171;-74
2023/02/19 06:34:04;;;;;;;20.80;11.67;;;9.20;99.90;;;;;;2615213;54;20154;-74
2023/02/19 06:39:51;;;;;;;18.63;12.70;;;9.20;99.90;;;;;;2615029;39;20462;-74
2023/02/19 06:45:39;;;;;;;25.17;14.67;;;9.20;99.90;;;;;;2615321;54;20138;-73
2023/02/19 06:51:28;;;;;;;18.67;13.20;;;9.30;99.90;;;;;;2615255;54;20118;-74
2023/02/19 07:07:39;;;;;;;30.87;18.13;;;9.40;99.90;;;;;;2613889;54;20394;-74
2023/02/19 07:13:27;;;;;;;20.93;13.30;;;9.40;99.90;;;;;;2613478;54;20267;-75
2023/02/19 07:19:14;;;;;;;22.30;14.53;;;9.40;99.90;;;;;;2614298;31;20891;-74
2023/02/19 07:25:02;;;;;;;25.57;14.70;;;9.40;99.90;;;;;;2613754;54;20378;-74
2023/02/19 07:30:49;;;;;;;14.80;11.30;;;9.30;99.90;;;;;;2613789;39;20885;-74
2023/02/19 07:36:36;;;;;;;19.73;13.57;;;9.30;99.90;;;;;;2613611;54;20134;-74
2023/02/19 07:42:24;;;;;;;14.23;11.37;;;9.30;99.90;;;;;;2615556;54;20584;-73
2023/02/19 07:48:12;;;;;;;14.93;11.00;;;9.30;99.90;;;;;;2616108;54;20687;-74
2023/02/19 07:54:02;;;;;;;21.60;12.83;;;9.30;99.90;;;;;;2615845;46;20389;-74
2023/02/19 07:57:02;;;;;;;14.37;10.60;;;9.30;99.90;;;;;;2615181;54;20408;-73
2023/02/19 07:59:30;;;;;;;14.90;10.40;;;9.30;99.90;;;;;;2615284;39;20524;-73
2023/02/19 08:05:17;;;;;;;22.00;11.00;;;9.40;99.90;;;;;;2615875;47;20354;-73
2023/02/19 08:17:12;;;;;;;21.60;11.03;;;9.40;99.90;;;;;;2615757;54;20383;-73
2023/02/19 08:23:03;;;;;;;18.83;12.20;;;9.60;99.90;;;;;;2616080;54;20162;-74
2023/02/19 08:28:51;;;;;;;19.63;11.93;;;9.60;99.90;;;;;;2616189;39;21079;-73
2023/02/19 08:34:39;;;;;;;20.80;12.47;;;9.60;99.90;;;;;;2615797;54;20139;-74
2023/02/19 08:40:26;;;;;;;16.17;9.43;;;9.60;99.90;;;;;;2615365;54;20146;-73
2023/02/19 08:46:14;;;;;;;29.77;14.13;;;9.90;99.90;;;;;;2615981;39;20521;-73
2023/02/19 08:52:02;;;;;;;19.63;11.20;;;10.00;99.90;;;;;;2615612;54;20295;-74
2023/02/19 09:01:37;;;;;;;21.20;11.37;;;10.10;99.90;;;;;;2615527;54;20381;-74
2023/02/19 09:07:25;;;;;;;14.03;9.80;;;10.30;99.90;;;;;;2616026;39;20739;-74
2023/02/19 09:13:13;;;;;;;17.20;10.53;;;10.20;99.90;;;;;;2616094;39;20887;-74
2023/02/19 09:19:02;;;;;;;21.10;11.60;;;10.20;99.90;;;;;;2615194;54;20150;-75
2023/02/19 09:24:50;;;;;;;11.63;8.47;;;10.20;99.90;;;;;;2615467;54;20607;-73
2023/02/19 09:30:41;;;;;;;13.23;8.57;;;10.10;99.90;;;;;;2614985;54;20873;-74
2023/02/19 09:36:28;;;;;;;12.00;9.20;;;10.20;99.90;;;;;;2615416;54;20387;-74
2023/02/19 09:42:19;;;;;;;16.97;8.47;;;10.40;99.90;;;;;;2615289;54;20146;-72
2023/02/19 09:48:10;;;;;;;9.80;7.70;;;11.10;99.90;;;;;;2615321;54;20379;-74
2023/02/19 09:53:58;;;;;;;13.80;7.30;;;10.30;99.90;;;;;;2615339;54;20434;-74
2023/02/19 09:57:04;;;;;;;12.87;7.30;;;9.90;99.90;;;;;;2614566;54;20403;-74
2023/02/19 10:06:22;;;;;;;10.40;8.33;;;10.30;99.90;;;;;;2613907;54;20384;-73
2023/02/19 10:12:17;;;;;;;11.10;7.87;;;10.20;99.90;;;;;;2614021;54;20371;-74
2023/02/19 10:18:06;;;;;;;14.40;8.33;;;10.90;99.90;;;;;;2613792;54;20371;-74
2023/02/19 10:23:56;;;;;;;13.27;8.30;;;11.10;99.90;;;;;;2613697;54;21267;-74
2023/02/19 10:29:46;;;;;;;11.07;6.07;;;11.00;99.90;;;;;;2614220;39;20769;-72
2023/02/19 10:46:33;;;;;;;6.00;4.80;;;10.70;99.90;;;;;;2615277;54;20355;-73
2023/02/19 10:52:27;;;;;;;8.20;4.93;;;10.60;99.90;;;;;;2615119;54;20468;-73
2023/02/19 11:07:57;;;;;;;6.80;4.80;;;10.90;99.90;;;;;;2614944;54;20399;-73
2023/02/19 11:13:45;;;;;;;6.20;4.90;;;10.90;99.90;;;;;;2615142;54;20126;-74
2023/02/19 11:19:36;;;;;;;12.43;6.27;;;10.80;99.90;;;;;;2614823;54;20394;-74
2023/02/19 11:25:24;;;;;;;7.90;5.10;;;11.00;99.90;;;;;;2615108;54;20383;-73
2023/02/19 11:31:14;;;;;;;10.23;4.73;;;11.80;99.90;;;;;;2615793;39;20756;-74
2023/02/19 11:37:16;;;;;;;7.00;4.50;;;11.30;99.90;;;;;;2615309;39;20769;-72
2023/02/19 11:43:28;;;;;;;5.23;4.60;;;11.60;99.90;;;;;;2614892;54;21593;-74
2023/02/19 12:00:15;;;;;;;3.40;3.10;;;11.20;99.90;;;;;;2614509;54;20586;-73
2023/02/19 12:06:05;;;;;;;6.60;3.27;;;11.00;99.90;;;;;;2614863;54;20402;-73
2023/02/19 12:18:24;;;;;;;4.27;3.87;;;11.50;99.90;;;;;;2614431;54;20479;-73
2023/02/19 12:48:18;;;;;;;5.40;4.70;;;11.30;99.90;;;;;;2614709;39;20837;-73
2023/02/19 13:04:16;;;;;;;3.10;2.70;;;10.20;99.90;;;;;;2614215;54;20439;-73
2023/02/19 13:14:12;;;;;;;4.53;4.13;;;10.50;99.90;;;;;;2616120;39;20897;-73
2023/02/19 13:27:12;;;;;;;10.63;4.17;;;11.60;99.90;;;;;;2613652;54;20387;-73
2023/02/19 13:39:19;;;;;;;4.97;4.57;;;10.90;99.90;;;;;;2613651;54;20429;-74
2023/02/19 13:51:50;;;;;;;6.20;3.90;;;10.50;99.90;;;;;;2613870;54;20351;-73
2023/02/19 13:57:38;;;;;;;4.67;3.67;;;10.30;99.90;;;;;;2613857;54;20413;-72
2023/02/19 14:07:03;;;;;;;5.33;4.83;;;10.50;99.90;;;;;;2615286;54;20423;-72
2023/02/19 14:12:51;;;;;;;5.80;5.27;;;10.50;99.90;;;;;;2615410;54;20407;-73
2023/02/19 14:18:44;;;;;;;5.97;4.37;;;10.50;99.90;;;;;;2615069;54;20138;-73
2023/02/19 14:24:32;;;;;;;6.10;5.00;;;10.30;99.90;;;;;;2615523;54;20379;-73
2023/02/19 14:30:22;;;;;;;5.37;4.50;;;10.10;99.90;;;;;;2616163;31;20916;-74
2023/02/19 14:36:25;;;;;;;6.13;4.77;;;10.10;99.90;;;;;;2615703;54;20386;-73
2023/02/19 14:42:26;;;;;;;5.33;4.63;;;10.00;99.90;;;;;;2615263;54;20435;-73
2023/02/19 15:00:58;;;;;;;7.20;5.07;;;10.50;99.90;;;;;;2615036;54;20387;-73
2023/02/19 15:06:46;;;;;;;7.93;7.10;;;10.40;99.90;;;;;;2615090;54;20378;-74
2023/02/19 15:18:50;;;;;;;15.63;8.63;;;10.20;99.90;;;;;;2614839;54;20363;-73
2023/02/19 15:24:43;;;;;;;10.10;8.77;;;10.30;99.90;;;;;;2615202;54;20379;-72
2023/02/19 15:30:31;;;;;;;9.43;7.20;;;9.90;99.90;;;;;;2615137;54;20459;-73
2023/02/19 15:43:03;;;;;;;17.83;9.40;;;9.70;99.90;;;;;;2613556;54;20416;-72
2023/02/19 16:01:53;;;;;;;25.43;11.40;;;9.50;99.90;;;;;;2613822;54;20466;-73
2023/02/19 16:07:42;;;;;;;19.10;11.80;;;9.40;99.90;;;;;;2613981;54;20170;-74
2023/02/19 16:13:31;;;;;;;15.10;10.70;;;9.40;99.90;;;;;;2614105;54;20388;-73
2023/02/19 16:19:21;;;;;;;19.00;10.90;;;9.40;99.90;;;;;;2613877;54;20956;-76
2023/02/19 16:31:58;;;;;;;10.93;7.03;;;9.30;99.90;;;;;;2614941;31;20867;-73
2023/02/19 16:48:43;;;;;;;5.97;4.57;;;9.30;99.90;;;;;;2614194;54;20398;-72
2023/02/19 16:54:31;;;;;;;16.77;6.27;;;9.30;99.90;;;;;;2614518;54;20423;-73
2023/02/19 17:06:33;;;;;;;7.93;5.27;;;9.20;99.90;;;;;;2614760;54;21322;-73
2023/02/19 17:12:21;;;;;;;5.90;5.27;;;9.20;99.90;;;;;;2614169;54;20487;-73
2023/02/19 17:21:46;;;;;;;8.53;6.50;;;9.10;99.90;;;;;;2614172;54;20411;-73
2023/02/19 17:27:33;;;;;;;7.90;5.77;;;9.10;99.90;;;;;;2614129;54;20139;-72
2023/02/19 17:33:20;;;;;;;9.27;5.90;;;9.10;99.90;;;;;;2614296;54;20222;-74
2023/02/19 17:39:13;;;;;;;11.90;8.70;;;9.00;99.90;;;;;;2614083;54;20123;-73
2023/02/19 17:45:01;;;;;;;6.80;5.10;;;8.90;99.90;;;;;;2614314;54;20777;-74
2023/02/19 17:50:49;;;;;;;7.43;5.43;;;8.90;99.90;;;;;;2614441;54;20220;-74
2023/02/19 17:56:38;;;;;;;8.27;6.57;;;8.80;99.90;;;;;;2615820;54;20387;-73
2023/02/19 18:02:26;;;;;;;10.80;7.00;;;8.80;99.90;;;;;;2615471;54;20913;-73
2023/02/19 18:05:30;;;;;;;12.80;7.33;;;8.70;99.90;;;;;;2615588;54;20419;-73
2023/02/19 18:07:55;;;;;;;10.53;8.00;;;8.70;99.90;;;;;;2615284;54;20185;-73
2023/02/19 18:13:53;;;;;;;11.97;6.40;;;8.70;99.90;;;;;;2614148;47;20569;-74
2023/02/19 18:19:43;;;;;;;11.30;8.73;;;8.60;99.90;;;;;;2614002;54;20123;-74
2023/02/19 18:25:30;;;;;;;12.90;9.20;;;8.60;99.90;;;;;;2614131;54;20383;-74
2023/02/19 18:34:41;;;;;;;18.50;11.77;;;8.40;99.90;;;;;;2614011;54;20380;-72
2023/02/19 18:40:29;;;;;;;9.47;7.00;;;8.10;99.90;;;;;;2614032;54;20355;-73
2023/02/19 18:46:20;;;;;;;8.50;6.70;;;7.80;99.90;;;;;;2613811;54;20147;-73
2023/02/19 18:52:07;;;;;;;7.40;6.07;;;7.50;99.90;;;;;;2615238;54;20403;-74
2023/02/19 18:57:55;;;;;;;7.30;5.50;;;7.40;99.90;;;;;;2614947;54;20123;-73
2023/02/19 19:03:43;;;;;;;7.47;6.73;;;7.40;99.90;;;;;;2615933;39;20805;-74
2023/02/19 19:09:31;;;;;;;9.17;8.13;;;7.40;99.90;;;;;;2615219;54;20147;-74
2023/02/19 19:15:19;;;;;;;8.40;6.43;;;7.50;99.90;;;;;;2615222;54;20391;-74
2023/02/19 19:21:08;;;;;;;10.10;5.70;;;7.50;99.90;;;;;;2615095;54;20433;-73
2023/02/19 19:26:56;;;;;;;10.03;5.77;;;7.50;99.90;;;;;;2615104;54;20455;-73
2023/02/19 19:32:43;;;;;;;9.27;5.30;;;7.50;99.90;;;;;;2615273;54;20126;-73
2023/02/19 19:38:31;;;;;;;7.40;5.87;;;7.50;99.90;;;;;;2616810;54;20242;-74
2023/02/19 19:44:19;;;;;;;7.33;5.57;;;7.40;99.90;;;;;;2616931;46;20401;-75
2023/02/19 19:50:08;;;;;;;10.73;5.70;;;7.50;99.90;;;;;;2616796;54;20118;-73
2023/02/19 19:55:56;;;;;;;9.20;7.13;;;7.40;99.90;;;;;;2616685;54;20507;-73
2023/02/19 20:01:52;;;;;;;9.53;6.53;;;7.50;99.90;;;;;;2616816;54;20393;-73
2023/02/19 20:07:40;;;;;;;8.20;5.67;;;7.50;99.90;;;;;;2616685;54;20489;-74
2023/02/19 20:13:29;;;;;;;8.80;6.63;;;7.40;99.90;;;;;;2616678;54;20818;-73
2023/02/19 20:19:19;;;;;;;10.63;7.70;;;7.50;99.90;;;;;;2616618;54;20347;-73
2023/02/19 20:25:06;;;;;;;9.40;7.20;;;7.50;99.90;;;;;;2616824;54;20471;-73
2023/02/19 20:30:54;;;;;;;12.53;8.10;;;7.40;99.90;;;;;;2616727;54;20142;-73
2023/02/19 20:36:47;;;;;;;12.70;8.57;;;7.50;99.90;;;;;;2617038;39;20620;-74
2023/02/19 20:42:34;;;;;;;13.00;9.07;;;7.50;99.90;;;;;;2616647;54;20418;-73
2023/02/19 20:48:22;;;;;;;12.53;8.47;;;7.50;99.90;;;;;;2615550;54;20142;-73
2023/02/19 20:54:10;;;;;;;10.97;8.07;;;7.50;99.90;;;;;;2615882;54;20138;-74
2023/02/19 20:59:57;;;;;;;10.10;7.43;;;7.50;99.90;;;;;;2615741;54;20129;-74
2023/02/19 21:05:45;;;;;;;10.30;7.53;;;7.40;99.90;;;;;;2615814;54;20114;-72
2023/02/19 21:15:42;;;;;;;17.73;10.60;;;7.50;99.90;;;;;;2616038;54;20358;-73
2023/02/19 21:21:30;;;;;;;14.17;9.87;;;7.40;99.90;;;;;;2615740;54;20932;-73
2023/02/19 21:27:19;;;;;;;14.40;10.53;;;7.40;99.90;;;;;;2615652;54;20908;-74
2023/02/19 21:33:06;;;;;;;14.80;11.03;;;7.20;99.90;;;;;;2615563;54;20394;-74
2023/02/19 21:38:54;;;;;;;16.10;11.07;;;7.00;99.90;;;;;;2615409;54;20119;-73
2023/02/19 21:44:42;;;;;;;14.70;10.27;;;7.00;99.90;;;;;;2615861;54;20119;-74
2023/02/19 21:50:30;;;;;;;13.50;9.70;;;6.90;99.90;;;;;;2615915;54;20641;-74
2023/02/19 21:56:24;;;;;;;12.47;9.40;;;6.70;99.90;;;;;;2615877;39;20502;-75
2023/02/19 22:02:11;;;;;;;9.13;8.20;;;6.60;99.90;;;;;;2615632;54;20360;-73
2023/02/19 22:07:59;;;;;;;10.77;6.67;;;6.60;99.90;;;;;;2615388;54;20678;-74
2023/02/19 22:11:12;;;;;;;11.80;7.80;;;6.60;99.90;;;;;;2615520;54;20463;-73
2023/02/19 22:13:38;;;;;;;11.63;7.60;;;6.50;99.90;;;;;;2614872;47;20178;-74
2023/02/19 22:19:26;;;;;;;9.80;6.80;;;6.40;99.90;;;;;;2615380;54;20443;-72
2023/02/19 22:25:14;;;;;;;8.60;6.50;;;6.40;99.90;;;;;;2615555;54;20157;-74
2023/02/19 22:31:01;;;;;;;8.50;6.33;;;6.50;99.90;;;;;;2615805;54;20118;-73
2023/02/19 22:36:49;;;;;;;8.17;6.00;;;6.60;99.90;;;;;;2615602;54;20249;-75
2023/02/19 22:42:37;;;;;;;7.77;5.40;;;6.50;99.90;;;;;;2615790;54;20131;-73
2023/02/19 22:48:25;;;;;;;6.50;5.00;;;6.50;99.90;;;;;;2615069;54;20928;-73
2023/02/19 22:54:12;;;;;;;6.40;5.67;;;6.30;99.90;;;;;;2614856;54;20122;-73
2023/02/19 23:00:01;;;;;;;7.57;5.93;;;6.30;99.90;;;;;;2615267;54;20126;-74
2023/02/19 23:05:48;;;;;;;6.23;4.70;;;6.00;99.90;;;;;;2615358;54;20549;-72
2023/02/19 23:15:45;;;;;;;12.40;7.53;;;5.80;99.90;;;;;;2615219;54;20423;-74
2023/02/19 23:21:33;;;;;;;6.83;5.10;;;5.60;99.90;;;;;;2615357;54;20379;-74
2023/02/19 23:27:23;;;;;;;6.17;5.30;;;5.50;99.90;;;;;;2615012;54;20188;-74
2023/02/19 23:33:10;;;;;;;6.80;5.00;;;5.40;99.90;;;;;;2615648;54;20391;-74
2023/02/19 23:38:58;;;;;;;6.43;4.93;;;5.30;99.90;;;;;;2614941;54;20134;-74
2023/02/19 23:44:46;;;;;;;6.53;4.47;;;5.40;99.90;;;;;;2615419;54;20134;-73
2023/02/19 23:50:34;;;;;;;7.60;4.90;;;5.30;99.90;;;;;;2615150;54;20375;-73
2023/02/19 23:56:24;;;;;;;6.27;4.93;;;5.30;99.90;;;;;;2615153;54;20158;-74
